Time;durP1;ratioP1;P1;durP2;ratioP2;P2;SDS_P1;SDS_P2;PMS_P1;PMS_P2;Temp;Humidity;BMP_temperature;BMP_pressure;BME280_temperature;BME280_humidity;BME280_pressure;Samples;Min_cycle;Max_cycle;Signal;HPM_P1;HPM_P2
2023/02/25 00:02:10;;;;;;;38.17;13.27;;;;;;;;;;12824107;19;20323;-69
2023/02/25 00:18:52;;;;;;;24.92;12.25;;;;;;;;;;12822674;19;20118;-69
2023/02/25 00:23:19;;;;;;;23.75;12.73;;;;;;;;;;12827553;19;20737;-69
2023/02/25 00:28:52;;;;;;;30.70;12.55;;;;;;;;;;12829562;19;20332;-68
2023/02/25 00:34:03;;;;;;;33.17;13.18;;;;;;;;;;12826337;19;20436;-70
2023/02/25 00:38:40;;;;;;;28.13;12.15;;;;;;;;;;12826840;19;20418;-69
2023/02/25 00:55:13;;;;;;;27.98;12.40;;;;;;;;;;12815664;19;20430;-70
2023/02/25 00:59:41;;;;;;;23.05;9.55;;;;;;;;;;12823175;19;20524;-70
2023/02/25 01:15:07;;;;;;;20.25;10.52;;;;;;;;;;12824086;19;20298;-69
2023/02/25 01:19:46;;;;;;;19.05;11.13;;;;;;;;;;12826149;19;20018;-68
2023/02/25 01:30:20;;;;;;;17.92;9.70;;;;;;;;;;12823059;19;20441;-69
2023/02/25 01:40:45;;;;;;;22.58;9.18;;;;;;;;;;12822492;19;20584;-69
2023/02/25 01:45:43;;;;;;;16.98;8.38;;;;;;;;;;12820325;19;20313;-71
2023/02/25 01:50:57;;;;;;;21.52;10.23;;;;;;;;;;12822896;19;20440;-69
2023/02/25 02:00:58;;;;;;;19.70;10.20;;;;;;;;;;12821819;19;20430;-69
2023/02/25 02:11:55;;;;;;;18.77;9.18;;;;;;;;;;12817597;19;20269;-69
2023/02/25 02:17:06;;;;;;;15.88;8.43;;;;;;;;;;12812722;19;20328;-69
2023/02/25 02:22:41;;;;;;;16.83;8.00;;;;;;;;;;12812209;19;20417;-69
2023/02/25 02:39:44;;;;;;;13.02;7.10;;;;;;;;;;12811127;19;20440;-68
2023/02/25 02:44:53;;;;;;;11.75;6.45;;;;;;;;;;12816178;19;20440;-68
2023/02/25 02:50:41;;;;;;;15.43;6.70;;;;;;;;;;12812101;19;20356;-68
2023/02/25 02:55:44;;;;;;;10.05;5.95;;;;;;;;;;12812809;19;20513;-69
2023/02/25 03:00:17;;;;;;;15.23;6.47;;;;;;;;;;12811571;19;20022;-70
2023/02/25 03:10:49;;;;;;;11.88;6.13;;;;;;;;;;12810367;19;20445;-68
2023/02/25 03:15:42;;;;;;;10.13;5.10;;;;;;;;;;12808052;19;20306;-69
2023/02/25 03:21:06;;;;;;;12.95;5.70;;;;;;;;;;12823646;19;20305;-68
2023/02/25 03:26:41;;;;;;;9.90;5.43;;;;;;;;;;12725060;19;2005164;-69
2023/02/25 03:31:58;;;;;;;9.57;4.95;;;;;;;;;;12821975;19;20010;-69
2023/02/25 03:36:46;;;;;;;8.85;4.80;;;;;;;;;;12822696;19;20516;-69
2023/02/25 03:47:00;;;;;;;11.77;6.30;;;;;;;;;;12821595;19;20082;-68
2023/02/25 03:52:43;;;;;;;11.35;5.10;;;;;;;;;;12820817;19;20425;-68
2023/02/25 04:09:12;;;;;;;7.97;4.22;;;;;;;;;;12825723;19;20432;-68
2023/02/25 04:19:42;;;;;;;8.48;4.10;;;;;;;;;;12825992;19;20035;-68
2023/02/25 04:24:41;;;;;;;8.15;4.60;;;;;;;;;;12824260;19;20328;-68
2023/02/25 04:34:47;;;;;;;6.88;3.83;;;;;;;;;;12818204;19;20003;-69
2023/02/25 04:39:40;;;;;;;8.32;3.67;;;;;;;;;;12824011;19;20393;-68
2023/02/25 04:44:45;;;;;;;8.98;3.55;;;;;;;;;;12827619;19;20299;-69
2023/02/25 04:50:01;;;;;;;6.28;3.60;;;;;;;;;;12820281;19;20361;-68
2023/02/25 04:54:45;;;;;;;9.75;5.03;;;;;;;;;;12826492;19;20501;-68
2023/02/25 05:05:46;;;;;;;8.07;3.55;;;;;;;;;;12816004;19;20306;-68
2023/02/25 05:10:40;;;;;;;4.82;3.17;;;;;;;;;;12821868;19;20306;-69
2023/02/25 05:21:44;;;;;;;5.18;2.88;;;;;;;;;;12816004;19;20413;-68
2023/02/25 05:26:21;;;;;;;5.30;2.97;;;;;;;;;;12815955;19;20083;-68
2023/02/25 05:30:54;;;;;;;6.03;3.40;;;;;;;;;;12817912;19;20022;-69
2023/02/25 05:35:56;;;;;;;5.20;3.03;;;;;;;;;;12822855;19;20319;-68
2023/02/25 05:41:21;;;;;;;5.68;3.60;;;;;;;;;;12823599;19;20456;-70
2023/02/25 05:46:12;;;;;;;6.55;3.53;;;;;;;;;;12820239;19;20345;-68
2023/02/25 05:51:45;;;;;;;3.92;2.72;;;;;;;;;;12825627;19;20505;-69
2023/02/25 05:58:02;;;;;;;4.28;2.92;;;;;;;;;;12712974;19;2005061;-69
2023/02/25 06:02:54;;;;;;;4.28;2.63;;;;;;;;;;12813537;19;20438;-68
2023/02/25 06:07:56;;;;;;;5.43;3.40;;;;;;;;;;12814918;19;20525;-68
2023/02/25 06:12:45;;;;;;;10.43;5.03;;;;;;;;;;12814076;19;20343;-70
2023/02/25 06:17:39;;;;;;;7.10;3.85;;;;;;;;;;12816647;19;20358;-68
2023/02/25 06:21:59;;;;;;;8.18;4.43;;;;;;;;;;12821602;19;20010;-68
2023/02/25 06:32:51;;;;;;;6.93;4.00;;;;;;;;;;12811486;19;20335;-69
2023/02/25 06:37:43;;;;;;;10.38;5.32;;;;;;;;;;12813038;19;20411;-69
2023/02/25 06:43:03;;;;;;;9.52;5.47;;;;;;;;;;12814678;19;20307;-69
2023/02/25 06:53:43;;;;;;;11.85;6.35;;;;;;;;;;12818205;19;20437;-68
2023/02/25 06:59:07;;;;;;;13.55;7.55;;;;;;;;;;12820203;19;20362;-69
2023/02/25 07:04:22;;;;;;;8.75;5.60;;;;;;;;;;12808623;19;20017;-69
2023/02/25 07:09:02;;;;;;;13.20;6.57;;;;;;;;;;12818260;19;20429;-69
2023/02/25 07:19:48;;;;;;;16.17;8.15;;;;;;;;;;12811352;19;20728;-70
2023/02/25 07:24:16;;;;;;;15.25;7.97;;;;;;;;;;12814078;19;20484;-69
2023/02/25 07:29:46;;;;;;;12.85;6.45;;;;;;;;;;12819788;19;20687;-70
2023/02/25 07:35:40;;;;;;;12.80;7.13;;;;;;;;;;12718035;19;2005828;-69
2023/02/25 07:40:41;;;;;;;20.73;9.35;;;;;;;;;;12815721;19;20370;-69
2023/02/25 07:51:45;;;;;;;31.73;15.93;;;;;;;;;;12808546;19;20327;-67
2023/02/25 07:56:07;;;;;;;11.00;6.07;;;;;;;;;;12814881;19;20354;-70
2023/02/25 08:00:41;;;;;;;12.32;6.63;;;;;;;;;;12817992;19;20313;-67
2023/02/25 08:05:20;;;;;;;11.70;6.55;;;;;;;;;;12816712;19;20011;-69
2023/02/25 08:11:24;;;;;;;8.38;5.28;;;;;;;;;;12825366;19;20011;-68
2023/02/25 08:16:17;;;;;;;8.70;5.47;;;;;;;;;;12821188;19;20340;-69
2023/02/25 08:26:21;;;;;;;10.73;4.78;;;;;;;;;;12824161;19;20011;-69
2023/02/25 08:31:40;;;;;;;9.40;4.80;;;;;;;;;;12826520;19;20499;-70
2023/02/25 08:42:42;;;;;;;16.13;9.02;;;;;;;;;;12717229;19;2005952;-69
2023/02/25 08:47:41;;;;;;;14.07;6.78;;;;;;;;;;12818273;19;20460;-68
2023/02/25 08:52:19;;;;;;;17.35;6.78;;;;;;;;;;12818345;19;20337;-69
2023/02/25 08:57:40;;;;;;;9.10;5.40;;;;;;;;;;12819464;19;20440;-68
2023/02/25 09:02:53;;;;;;;10.13;5.15;;;;;;;;;;12816918;19;20315;-69
2023/02/25 09:07:40;;;;;;;15.20;5.30;;;;;;;;;;12816346;19;20014;-69
2023/02/25 09:19:06;;;;;;;9.73;3.95;;;;;;;;;;12813983;19;20401;-69
2023/02/25 09:23:41;;;;;;;6.03;3.63;;;;;;;;;;12822487;19;20306;-69
2023/02/25 09:39:01;;;;;;;7.63;4.32;;;;;;;;;;12815109;19;20547;-69
2023/02/25 09:50:21;;;;;;;11.52;5.97;;;;;;;;;;12815331;19;20010;-71
2023/02/25 09:55:47;;;;;;;11.50;4.75;;;;;;;;;;12814748;19;20429;-69
2023/02/25 10:06:42;;;;;;;9.55;5.00;;;;;;;;;;12813564;19;20315;-69
2023/02/25 10:12:00;;;;;;;8.63;3.63;;;;;;;;;;12814184;19;20429;-70
2023/02/25 10:17:07;;;;;;;4.55;2.60;;;;;;;;;;12822540;19;20496;-69
2023/02/25 10:28:14;;;;;;;10.43;3.92;;;;;;;;;;12818916;19;20311;-69
2023/02/25 10:40:23;;;;;;;4.32;1.90;;;;;;;;;;12813497;19;20089;-69
2023/02/25 10:45:13;;;;;;;5.35;3.17;;;;;;;;;;12809651;19;20430;-69
2023/02/25 10:50:24;;;;;;;5.53;2.67;;;;;;;;;;12815104;19;20521;-69
2023/02/25 11:02:00;;;;;;;3.85;2.45;;;;;;;;;;12709912;19;2005365;-69
2023/02/25 11:06:46;;;;;;;9.15;3.20;;;;;;;;;;12811452;19;20312;-70
2023/02/25 11:12:23;;;;;;;5.60;3.08;;;;;;;;;;12812389;19;20503;-70
2023/02/25 11:17:10;;;;;;;7.10;3.38;;;;;;;;;;12810547;19;20322;-69
2023/02/25 11:21:50;;;;;;;9.18;4.38;;;;;;;;;;12815635;19;20495;-70
2023/02/25 11:38:51;;;;;;;7.20;3.03;;;;;;;;;;12814997;19;20508;-70
2023/02/25 11:50:20;;;;;;;1.95;1.55;;;;;;;;;;12832113;19;20007;-71
2023/02/25 11:56:00;;;;;;;8.48;2.90;;;;;;;;;;12829541;19;20382;-70
2023/02/25 12:13:12;;;;;;;2.58;1.45;;;;;;;;;;12820785;19;20359;-69
2023/02/25 12:17:41;;;;;;;1.55;1.33;;;;;;;;;;12826437;19;20433;-71
2023/02/25 12:28:50;;;;;;;3.95;1.88;;;;;;;;;;12726517;19;2005038;-70
2023/02/25 12:34:20;;;;;;;2.40;1.63;;;;;;;;;;12826815;19;20015;-70
2023/02/25 12:40:04;;;;;;;3.47;1.92;;;;;;;;;;12820028;19;20595;-69
2023/02/25 12:45:52;;;;;;;3.38;1.75;;;;;;;;;;12717859;19;2004908;-70
2023/02/25 12:51:23;;;;;;;7.57;1.60;;;;;;;;;;12817393;19;20517;-69
2023/02/25 12:57:16;;;;;;;2.05;1.38;;;;;;;;;;12816612;19;20536;-69
2023/02/25 13:03:00;;;;;;;2.58;1.70;;;;;;;;;;12815601;19;20392;-70
2023/02/25 13:08:16;;;;;;;2.58;1.70;;;;;;;;;;12818365;19;20357;-69
2023/02/25 13:14:09;;;;;;;3.33;2.05;;;;;;;;;;12826390;19;20523;-69
2023/02/25 13:19:41;;;;;;;5.53;2.78;;;;;;;;;;12713725;19;2005236;-69
2023/02/25 13:24:45;;;;;;;10.25;4.28;;;;;;;;;;12815253;19;20580;-69
2023/02/25 13:36:14;;;;;;;10.68;4.82;;;;;;;;;;12813944;19;20442;-69
2023/02/25 13:41:49;;;;;;;10.05;4.57;;;;;;;;;;12813721;19;20498;-70
2023/02/25 13:47:24;;;;;;;;;;;;;;;;;;;;;
2023/02/25 14:10:45;;;;;;;12.00;4.60;;;;;;;;;;12716098;19;2004949;-69
2023/02/25 14:16:03;;;;;;;4.80;2.20;;;;;;;;;;12821719;19;20588;-68
2023/02/25 14:27:03;;;;;;;;;;;;;;;;;;12714382;19;2005270;-69
2023/02/25 14:32:10;;;;;;;2.40;1.25;;;;;;;;;;12814182;19;19911;-68
2023/02/25 14:43:51;;;;;;;3.97;2.10;;;;;;;;;;12815452;19;20497;-69
2023/02/25 14:55:19;;;;;;;4.65;2.00;;;;;;;;;;12819529;19;20725;-70
2023/02/25 15:00:55;;;;;;;13.40;4.88;;;;;;;;;;12811760;19;20721;-70
2023/02/25 15:06:43;;;;;;;3.25;2.25;;;;;;;;;;12813110;19;20465;-69
2023/02/25 15:12:59;;;;;;;4.57;1.50;;;;;;;;;;12710757;19;2005165;-70
2023/02/25 15:18:51;;;;;;;6.68;2.20;;;;;;;;;;12721717;19;2004955;-69
2023/02/25 15:23:18;;;;;;;3.70;2.08;;;;;;;;;;12823567;19;20073;-69
2023/02/25 15:29:05;;;;;;;3.97;1.65;;;;;;;;;;12820431;19;20319;-69
2023/02/25 15:35:05;;;;;;;4.60;1.92;;;;;;;;;;12881848;19;20399;-68
2023/02/25 15:39:42;;;;;;;3.78;1.98;;;;;;;;;;12879911;19;20385;-71
2023/02/25 15:50:42;;;;;;;2.95;1.90;;;;;;;;;;12876277;19;20291;-68
2023/02/25 15:55:44;;;;;;;3.28;1.83;;;;;;;;;;12879403;19;20402;-69
2023/02/25 16:11:52;;;;;;;6.03;3.17;;;;;;;;;;12876449;19;20023;-69
2023/02/25 16:22:44;;;;;;;4.43;2.13;;;;;;;;;;12876482;19;20335;-68
2023/02/25 16:28:04;;;;;;;1.98;1.23;;;;;;;;;;12873810;19;20121;-71
2023/02/25 16:39:46;;;;;;;4.78;2.10;;;;;;;;;;12777158;19;2005800;-69
2023/02/25 16:45:02;;;;;;;4.45;1.70;;;;;;;;;;12838714;19;20382;-68
2023/02/25 16:56:43;;;;;;;5.47;2.50;;;;;;;;;;12718065;19;2005017;-68
2023/02/25 17:01:21;;;;;;;6.40;3.63;;;;;;;;;;12818236;19;20335;-69
2023/02/25 17:12:46;;;;;;;5.78;3.72;;;;;;;;;;12718383;19;2004898;-68
2023/02/25 17:17:46;;;;;;;6.72;2.67;;;;;;;;;;12818246;19;20403;-68
2023/02/25 17:29:11;;;;;;;6.78;2.10;;;;;;;;;;12717013;19;2005150;-69
2023/02/25 17:34:42;;;;;;;4.70;2.72;;;;;;;;;;12810656;19;20490;-68
2023/02/25 17:39:16;;;;;;;21.98;7.38;;;;;;;;;;12816607;19;20351;-68
2023/02/25 17:44:51;;;;;;;23.33;6.97;;;;;;;;;;12817801;19;20292;-68
2023/02/25 17:50:05;;;;;;;10.95;4.35;;;;;;;;;;12815334;19;20341;-68
2023/02/25 17:54:51;;;;;;;11.10;4.15;;;;;;;;;;12813009;19;20427;-68
2023/02/25 18:06:41;;;;;;;30.23;10.52;;;;;;;;;;12816363;19;20147;-68
2023/02/25 18:11:40;;;;;;;9.75;3.60;;;;;;;;;;12813505;19;20434;-68
2023/02/25 18:28:22;;;;;;;4.82;2.55;;;;;;;;;;12820634;19;20508;-68
2023/02/25 18:39:20;;;;;;;8.00;2.85;;;;;;;;;;12719516;19;2004626;-68
2023/02/25 18:44:18;;;;;;;13.77;6.03;;;;;;;;;;12817774;19;20546;-68
2023/02/25 18:54:52;;;;;;;11.18;4.85;;;;;;;;;;12820252;19;20374;-69
2023/02/25 18:59:57;;;;;;;6.55;3.83;;;;;;;;;;12816823;19;20295;-70
2023/02/25 19:04:51;;;;;;;7.55;3.13;;;;;;;;;;12818764;19;20048;-69
2023/02/25 19:16:07;;;;;;;6.35;3.75;;;;;;;;;;12710274;19;2005837;-69
2023/02/25 19:20:46;;;;;;;5.60;3.50;;;;;;;;;;12811786;19;20312;-70
2023/02/25 19:36:15;;;;;;;13.10;5.95;;;;;;;;;;12807342;19;20449;-69
2023/02/25 19:47:07;;;;;;;7.55;3.97;;;;;;;;;;12809366;19;20437;-68
2023/02/25 19:52:40;;;;;;;4.30;2.15;;;;;;;;;;12807603;19;20466;-68
2023/02/25 19:57:03;;;;;;;5.28;2.85;;;;;;;;;;12809411;19;20341;-69
2023/02/25 20:01:59;;;;;;;4.65;2.80;;;;;;;;;;12814827;19;20349;-69
2023/02/25 20:07:02;;;;;;;5.05;2.13;;;;;;;;;;12809187;19;20375;-69
2023/02/25 20:11:39;;;;;;;6.10;2.80;;;;;;;;;;12809779;19;20294;-69
2023/02/25 20:16:54;;;;;;;4.13;2.00;;;;;;;;;;12809971;19;20354;-68
2023/02/25 20:22:40;;;;;;;5.03;2.70;;;;;;;;;;12719978;19;2004955;-69
2023/02/25 20:39:03;;;;;;;5.32;1.95;;;;;;;;;;12808666;19;20442;-69
2023/02/25 20:55:38;;;;;;;6.00;3.17;;;;;;;;;;12819453;19;20025;-70
2023/02/25 21:01:14;;;;;;;8.35;4.30;;;;;;;;;;12821307;19;20494;-70
2023/02/25 21:06:26;;;;;;;4.28;2.78;;;;;;;;;;12717314;19;2005854;-70
2023/02/25 21:11:41;;;;;;;3.97;2.00;;;;;;;;;;12817358;19;20392;-68
2023/02/25 21:16:26;;;;;;;5.20;1.83;;;;;;;;;;12819699;19;20481;-71
2023/02/25 21:21:50;;;;;;;6.22;2.88;;;;;;;;;;12818160;19;20456;-70
2023/02/25 21:26:47;;;;;;;4.05;2.67;;;;;;;;;;12816485;19;20522;-68
2023/02/25 21:31:21;;;;;;;5.22;2.63;;;;;;;;;;12820805;19;20468;-68
2023/02/25 21:36:26;;;;;;;7.57;3.30;;;;;;;;;;12818453;19;20509;-69
2023/02/25 21:41:40;;;;;;;4.97;2.58;;;;;;;;;;12820591;19;20445;-68
2023/02/25 21:46:40;;;;;;;4.65;2.47;;;;;;;;;;12820443;19;20014;-68
2023/02/25 21:51:42;;;;;;;7.85;2.70;;;;;;;;;;12821965;19;20574;-68
2023/02/25 21:57:00;;;;;;;10.85;4.43;;;;;;;;;;12821410;19;20465;-69
2023/02/25 22:01:52;;;;;;;9.02;3.33;;;;;;;;;;12814723;19;20704;-68
2023/02/25 22:06:38;;;;;;;17.80;6.22;;;;;;;;;;12816301;19;20015;-68
2023/02/25 22:22:14;;;;;;;11.73;4.75;;;;;;;;;;12812872;19;20296;-68
2023/02/25 22:34:11;;;;;;;24.23;8.10;;;;;;;;;;12711634;19;2005514;-68
2023/02/25 22:39:12;;;;;;;7.32;3.17;;;;;;;;;;12806863;19;20395;-69
2023/02/25 22:49:42;;;;;;;10.30;4.45;;;;;;;;;;12813573;19;20399;-68
2023/02/25 23:00:03;;;;;;;12.38;5.93;;;;;;;;;;12818662;19;20494;-68
2023/02/25 23:05:17;;;;;;;15.98;6.43;;;;;;;;;;12819219;19;20494;-68
2023/02/25 23:10:47;;;;;;;5.65;3.20;;;;;;;;;;12819218;19;20425;-69
2023/02/25 23:15:19;;;;;;;4.53;2.15;;;;;;;;;;12821275;19;20098;-69
2023/02/25 23:20:59;;;;;;;11.13;4.53;;;;;;;;;;12821573;19;20030;-69
2023/02/25 23:26:13;;;;;;;4.95;2.67;;;;;;;;;;12717437;19;2005049;-69
2023/02/25 23:30:45;;;;;;;6.53;2.38;;;;;;;;;;12818252;19;20318;-68
2023/02/25 23:35:10;;;;;;;9.00;4.35;;;;;;;;;;12819804;19;20469;-69
2023/02/25 23:40:55;;;;;;;5.00;2.28;;;;;;;;;;12821261;19;20437;-68
2023/02/25 23:45:54;;;;;;;4.18;2.17;;;;;;;;;;12818821;19;20513;-69
2023/02/25 23:50:39;;;;;;;6.22;2.38;;;;;;;;;;12817749;19;20011;-69
2023/02/25 23:55:45;;;;;;;4.75;2.03;;;;;;;;;;12828071;19;20366;-68
